sensor_id;sensor_type;location;lat;lon;timestamp;pressure;altitude;pressure_sealevel;temperature;humidity
80759;BME280;70150;45.582;10.178;2023-06-22T00:01:00;100160.78;;;25.53;53.76
80759;BME280;70150;45.582;10.178;2023-06-22T00:03:26;100163.31;;;25.48;53.73
80759;BME280;70150;45.582;10.178;2023-06-22T00:05:52;100168.13;;;25.56;53.71
80759;BME280;70150;45.582;10.178;2023-06-22T00:08:18;100169.25;;;25.46;54.30
80759;BME280;70150;45.582;10.178;2023-06-22T00:10:45;100159.41;;;25.36;54.09
80759;BME280;70150;45.582;10.178;2023-06-22T00:13:11;100163.06;;;25.33;54.42
80759;BME280;70150;45.582;10.178;2023-06-22T00:15:40;100164.03;;;25.39;53.74
80759;BME280;70150;45.582;10.178;2023-06-22T00:18:07;100164.91;;;25.36;54.00
80759;BME280;70150;45.582;10.178;2023-06-22T00:20:33;100171.28;;;25.33;54.07
80759;BME280;70150;45.582;10.178;2023-06-22T00:23:03;100176.78;;;25.33;54.52
80759;BME280;70150;45.582;10.178;2023-06-22T00:25:35;100175.25;;;25.32;53.97
80759;BME280;70150;45.582;10.178;2023-06-22T00:28:02;100167.56;;;25.27;54.19
80759;BME280;70150;45.582;10.178;2023-06-22T00:30:28;100163.28;;;25.26;54.19
80759;BME280;70150;45.582;10.178;2023-06-22T00:32:53;100167.56;;;25.27;54.32
80759;BME280;70150;45.582;10.178;2023-06-22T00:35:19;100163.84;;;25.21;54.17
80759;BME280;70150;45.582;10.178;2023-06-22T00:37:45;100168.56;;;25.33;54.10
80759;BME280;70150;45.582;10.178;2023-06-22T00:40:10;100162.28;;;25.33;53.83
80759;BME280;70150;45.582;10.178;2023-06-22T00:42:38;100161.72;;;25.25;54.38
80759;BME280;70150;45.582;10.178;2023-06-22T00:45:06;100150.09;;;25.21;54.34
80759;BME280;70150;45.582;10.178;2023-06-22T00:47:32;100160.00;;;25.19;54.20
80759;BME280;70150;45.582;10.178;2023-06-22T00:49:59;100159.75;;;25.26;53.87
80759;BME280;70150;45.582;10.178;2023-06-22T00:52:26;100160.00;;;25.19;54.37
80759;BME280;70150;45.582;10.178;2023-06-22T00:54:56;100164.19;;;25.11;54.66
80759;BME280;70150;45.582;10.178;2023-06-22T00:57:24;100169.25;;;25.12;54.31
80759;BME280;70150;45.582;10.178;2023-06-22T00:59:53;100164.19;;;25.11;54.60
80759;BME280;70150;45.582;10.178;2023-06-22T01:02:19;100162.22;;;25.11;54.55
80759;BME280;70150;45.582;10.178;2023-06-22T01:04:45;100170.78;;;25.13;54.59
80759;BME280;70150;45.582;10.178;2023-06-22T01:07:21;100162.66;;;25.10;54.20
80759;BME280;70150;45.582;10.178;2023-06-22T01:12:24;100177.47;;;25.12;54.14
80759;BME280;70150;45.582;10.178;2023-06-22T01:15:01;100172.88;;;25.09;54.65
80759;BME280;70150;45.582;10.178;2023-06-22T01:17:31;100177.16;;;25.10;54.55
80759;BME280;70150;45.582;10.178;2023-06-22T01:20:02;100166.84;;;25.14;54.01
80759;BME280;70150;45.582;10.178;2023-06-22T01:22:33;100174.84;;;25.09;54.06
80759;BME280;70150;45.582;10.178;2023-06-22T01:30:07;100170.13;;;25.09;54.14
80759;BME280;70150;45.582;10.178;2023-06-22T01:32:36;100165.88;;;25.08;54.39
80759;BME280;70150;45.582;10.178;2023-06-22T01:35:05;100165.97;;;25.05;54.22
80759;BME280;70150;45.582;10.178;2023-06-22T01:37:32;100170.69;;;24.92;54.93
80759;BME280;70150;45.582;10.178;2023-06-22T01:40:00;100177.75;;;24.93;54.82
80759;BME280;70150;45.582;10.178;2023-06-22T01:42:27;100174.56;;;24.82;55.47
80759;BME280;70150;45.582;10.178;2023-06-22T01:44:53;100182.25;;;24.87;55.46
80759;BME280;70150;45.582;10.178;2023-06-22T01:47:20;100174.47;;;24.85;55.25
80759;BME280;70150;45.582;10.178;2023-06-22T01:49:47;100170.19;;;24.71;55.94
80759;BME280;70150;45.582;10.178;2023-06-22T01:52:14;100171.97;;;24.65;55.88
80759;BME280;70150;45.582;10.178;2023-06-22T01:54:39;100169.44;;;24.71;55.56
80759;BME280;70150;45.582;10.178;2023-06-22T01:57:05;100172.50;;;24.73;55.05
80759;BME280;70150;45.582;10.178;2023-06-22T01:59:35;100174.56;;;24.69;55.52
80759;BME280;70150;45.582;10.178;2023-06-22T02:02:07;100172.91;;;24.59;55.92
80759;BME280;70150;45.582;10.178;2023-06-22T02:07:13;100165.59;;;24.68;55.65
80759;BME280;70150;45.582;10.178;2023-06-22T02:09:42;100165.47;;;24.72;55.64
80759;BME280;70150;45.582;10.178;2023-06-22T02:12:10;100166.44;;;24.78;54.79
80759;BME280;70150;45.582;10.178;2023-06-22T02:14:37;100162.59;;;24.63;55.56
80759;BME280;70150;45.582;10.178;2023-06-22T02:17:04;100162.41;;;24.70;55.26
80759;BME280;70150;45.582;10.178;2023-06-22T02:19:36;100165.59;;;24.68;55.13
80759;BME280;70150;45.582;10.178;2023-06-22T02:22:02;100168.88;;;24.76;54.60
80759;BME280;70150;45.582;10.178;2023-06-22T02:24:28;100174.91;;;24.71;55.04
80759;BME280;70150;45.582;10.178;2023-06-22T02:26:57;100179.09;;;24.75;55.21
80759;BME280;70150;45.582;10.178;2023-06-22T02:29:23;100180.28;;;24.74;55.14
80759;BME280;70150;45.582;10.178;2023-06-22T02:31:48;100175.69;;;24.71;55.08
80759;BME280;70150;45.582;10.178;2023-06-22T02:34:14;100177.75;;;24.67;55.48
80759;BME280;70150;45.582;10.178;2023-06-22T02:36:45;100183.59;;;24.69;55.21
80759;BME280;70150;45.582;10.178;2023-06-22T02:39:20;100181.38;;;24.77;54.82
80759;BME280;70150;45.582;10.178;2023-06-22T02:41:48;100185.88;;;24.71;54.89
80759;BME280;70150;45.582;10.178;2023-06-22T02:44:14;100182.16;;;24.65;55.50
80759;BME280;70150;45.582;10.178;2023-06-22T02:46:39;100177.13;;;24.76;54.87
80759;BME280;70150;45.582;10.178;2023-06-22T02:49:05;100178.00;;;24.73;55.03
80759;BME280;70150;45.582;10.178;2023-06-22T02:51:37;100183.59;;;24.69;55.01
80759;BME280;70150;45.582;10.178;2023-06-22T02:54:05;100188.97;;;24.73;54.62
80759;BME280;70150;45.582;10.178;2023-06-22T02:56:33;100178.09;;;24.69;54.71
80759;BME280;70150;45.582;10.178;2023-06-22T02:58:58;100186.53;;;24.75;55.00
80759;BME280;70150;45.582;10.178;2023-06-22T03:01:27;100174.78;;;24.62;55.01
80759;BME280;70150;45.582;10.178;2023-06-22T03:03:56;100188.97;;;24.73;54.47
80759;BME280;70150;45.582;10.178;2023-06-22T03:06:21;100181.28;;;24.68;54.52
80759;BME280;70150;45.582;10.178;2023-06-22T03:08:49;100187.72;;;24.61;54.62
80759;BME280;70150;45.582;10.178;2023-06-22T03:11:15;100179.41;;;24.77;54.35
80759;BME280;70150;45.582;10.178;2023-06-22T03:13:41;100178.63;;;24.77;54.66
80759;BME280;70150;45.582;10.178;2023-06-22T03:16:09;100176.44;;;24.72;55.13
80759;BME280;70150;45.582;10.178;2023-06-22T03:18:34;100177.19;;;24.60;55.21
80759;BME280;70150;45.582;10.178;2023-06-22T03:21:00;100182.38;;;24.58;55.02
80759;BME280;70150;45.582;10.178;2023-06-22T03:23:30;100176.44;;;24.72;54.58
80759;BME280;70150;45.582;10.178;2023-06-22T03:25:55;100179.97;;;24.72;54.55
80759;BME280;70150;45.582;10.178;2023-06-22T03:28:21;100178.44;;;24.71;54.08
80759;BME280;70150;45.582;10.178;2023-06-22T03:30:47;100175.34;;;24.69;54.42
80759;BME280;70150;45.582;10.178;2023-06-22T03:33:12;100176.88;;;24.70;54.17
80759;BME280;70150;45.582;10.178;2023-06-22T03:35:38;100173.38;;;24.70;54.26
80759;BME280;70150;45.582;10.178;2023-06-22T03:38:06;100170.75;;;24.66;54.77
80759;BME280;70150;45.582;10.178;2023-06-22T03:40:31;100179.03;;;24.63;54.98
80759;BME280;70150;45.582;10.178;2023-06-22T03:42:59;100172.72;;;24.53;55.42
80759;BME280;70150;45.582;10.178;2023-06-22T03:45:25;100169.53;;;24.55;54.91
80759;BME280;70150;45.582;10.178;2023-06-22T03:47:50;100175.88;;;24.52;55.34
80759;BME280;70150;45.582;10.178;2023-06-22T03:50:16;100180.50;;;24.55;55.26
80759;BME280;70150;45.582;10.178;2023-06-22T03:52:42;100172.28;;;24.55;54.88
80759;BME280;70150;45.582;10.178;2023-06-22T03:55:08;100176.97;;;24.54;55.20
80759;BME280;70150;45.582;10.178;2023-06-22T03:57:33;100181.16;;;24.59;55.01
80759;BME280;70150;45.582;10.178;2023-06-22T03:59:59;100180.94;;;24.66;54.73
80759;BME280;70150;45.582;10.178;2023-06-22T04:02:25;100183.34;;;24.51;55.06
80759;BME280;70150;45.582;10.178;2023-06-22T04:04:51;100186.00;;;24.55;55.39
80759;BME280;70150;45.582;10.178;2023-06-22T04:07:16;100187.72;;;24.61;55.20
80759;BME280;70150;45.582;10.178;2023-06-22T04:09:43;100190.78;;;24.51;55.86
80759;BME280;70150;45.582;10.178;2023-06-22T04:12:09;100190.16;;;24.47;56.14
80759;BME280;70150;45.582;10.178;2023-06-22T04:14:34;100195.09;;;24.52;56.04
80759;BME280;70150;45.582;10.178;2023-06-22T04:17:01;100197.06;;;24.51;55.82
80759;BME280;70150;45.582;10.178;2023-06-22T04:19:27;100202.00;;;24.56;55.63
80759;BME280;70150;45.582;10.178;2023-06-22T04:21:52;100200.16;;;24.66;55.34
80759;BME280;70150;45.582;10.178;2023-06-22T04:24:18;100192.47;;;24.61;55.35
80759;BME280;70150;45.582;10.178;2023-06-22T04:26:43;100192.59;;;24.70;54.93
80759;BME280;70150;45.582;10.178;2023-06-22T04:29:11;100186.66;;;24.71;55.08
80759;BME280;70150;45.582;10.178;2023-06-22T04:31:37;100186.19;;;24.86;54.17
80759;BME280;70150;45.582;10.178;2023-06-22T04:34:04;100180.50;;;24.80;54.30
80759;BME280;70150;45.582;10.178;2023-06-22T04:36:35;100178.19;;;24.91;54.28
80759;BME280;70150;45.582;10.178;2023-06-22T04:39:04;100180.56;;;25.14;52.51
80759;BME280;70150;45.582;10.178;2023-06-22T04:41:31;100172.09;;;25.09;52.72
80759;BME280;70150;45.582;10.178;2023-06-22T04:44:02;100173.50;;;25.13;52.36
80759;BME280;70150;45.582;10.178;2023-06-22T04:46:30;100170.22;;;25.18;52.61
80759;BME280;70150;45.582;10.178;2023-06-22T04:48:55;100166.03;;;25.26;52.37
80759;BME280;70150;45.582;10.178;2023-06-22T04:51:21;100168.88;;;25.35;51.57
80759;BME280;70150;45.582;10.178;2023-06-22T04:53:56;100175.19;;;25.45;52.07
80759;BME280;70150;45.582;10.178;2023-06-22T04:56:26;100180.13;;;25.50;52.58
80759;BME280;70150;45.582;10.178;2023-06-22T04:58:53;100179.50;;;25.46;52.42
80759;BME280;70150;45.582;10.178;2023-06-22T05:01:22;100179.53;;;25.33;53.32
80759;BME280;70150;45.582;10.178;2023-06-22T05:03:48;100179.44;;;25.24;53.04
80759;BME280;70150;45.582;10.178;2023-06-22T05:06:13;100186.25;;;25.32;52.75
80759;BME280;70150;45.582;10.178;2023-06-22T05:08:40;100178.16;;;25.50;52.34
80759;BME280;70150;45.582;10.178;2023-06-22T05:11:05;100177.63;;;25.64;51.30
80759;BME280;70150;45.582;10.178;2023-06-22T05:13:32;100175.94;;;26.01;51.22
80759;BME280;70150;45.582;10.178;2023-06-22T05:15:58;100165.97;;;26.56;49.65
80759;BME280;70150;45.582;10.178;2023-06-22T05:18:28;100164.03;;;27.68;46.59
80759;BME280;70150;45.582;10.178;2023-06-22T05:20:55;100164.28;;;28.06;45.57
80759;BME280;70150;45.582;10.178;2023-06-22T05:23:20;100166.25;;;28.89;44.02
80759;BME280;70150;45.582;10.178;2023-06-22T05:25:46;100159.44;;;29.60;42.38
80759;BME280;70150;45.582;10.178;2023-06-22T05:28:11;100164.19;;;30.13;41.25
80759;BME280;70150;45.582;10.178;2023-06-22T05:30:38;100159.44;;;29.46;42.09
80759;BME280;70150;45.582;10.178;2023-06-22T05:33:03;100160.50;;;29.01;43.85
80759;BME280;70150;45.582;10.178;2023-06-22T05:35:29;100166.53;;;28.26;45.72
80759;BME280;70150;45.582;10.178;2023-06-22T05:37:55;100175.03;;;27.95;46.54
80759;BME280;70150;45.582;10.178;2023-06-22T05:40:21;100178.53;;;28.55;45.02
80759;BME280;70150;45.582;10.178;2023-06-22T05:42:47;100177.13;;;28.92;45.10
80759;BME280;70150;45.582;10.178;2023-06-22T05:45:15;100182.34;;;29.61;44.02
80759;BME280;70150;45.582;10.178;2023-06-22T05:47:41;100190.66;;;30.77;41.97
80759;BME280;70150;45.582;10.178;2023-06-22T05:50:07;100180.34;;;30.63;42.72
80759;BME280;70150;45.582;10.178;2023-06-22T05:52:34;100181.50;;;31.72;41.03
80759;BME280;70150;45.582;10.178;2023-06-22T05:55:00;100181.88;;;32.10;40.56
80759;BME280;70150;45.582;10.178;2023-06-22T05:57:25;100172.72;;;33.73;37.29
80759;BME280;70150;45.582;10.178;2023-06-22T05:59:51;100185.03;;;35.10;34.33
80759;BME280;70150;45.582;10.178;2023-06-22T06:02:17;100178.53;;;35.94;33.13
80759;BME280;70150;45.582;10.178;2023-06-22T06:04:42;100169.50;;;37.14;30.52
80759;BME280;70150;45.582;10.178;2023-06-22T06:07:08;100162.47;;;37.63;29.09
80759;BME280;70150;45.582;10.178;2023-06-22T06:09:33;100160.22;;;36.82;28.96
80759;BME280;70150;45.582;10.178;2023-06-22T06:12:01;100157.25;;;37.35;29.47
80759;BME280;70150;45.582;10.178;2023-06-22T06:14:28;100148.34;;;37.37;29.21
80759;BME280;70150;45.582;10.178;2023-06-22T06:16:56;100136.25;;;37.47;28.49
80759;BME280;70150;45.582;10.178;2023-06-22T06:19:22;100131.19;;;36.85;29.57
80759;BME280;70150;45.582;10.178;2023-06-22T06:21:47;100138.28;;;33.76;34.22
80759;BME280;70150;45.582;10.178;2023-06-22T06:24:13;100142.53;;;32.85;36.09
80759;BME280;70150;45.582;10.178;2023-06-22T06:26:38;100148.38;;;33.57;35.25
80759;BME280;70150;45.582;10.178;2023-06-22T06:29:04;100150.91;;;33.66;35.16
80759;BME280;70150;45.582;10.178;2023-06-22T06:31:30;100153.56;;;32.74;37.77
80759;BME280;70150;45.582;10.178;2023-06-22T06:33:55;100166.06;;;33.54;36.57
80759;BME280;70150;45.582;10.178;2023-06-22T06:36:23;100162.25;;;35.06;33.95
80759;BME280;70150;45.582;10.178;2023-06-22T06:38:49;100164.38;;;35.86;32.50
80759;BME280;70150;45.582;10.178;2023-06-22T06:41:15;100167.84;;;35.98;32.99
80759;BME280;70150;45.582;10.178;2023-06-22T06:43:41;100161.94;;;36.61;31.60
80759;BME280;70150;45.582;10.178;2023-06-22T06:46:08;100168.34;;;36.32;32.30
80759;BME280;70150;45.582;10.178;2023-06-22T06:48:34;100178.97;;;35.63;33.65
80759;BME280;70150;45.582;10.178;2023-06-22T06:51:00;100182.81;;;34.92;35.95
80759;BME280;70150;45.582;10.178;2023-06-22T06:53:25;100187.44;;;34.28;36.69
80759;BME280;70150;45.582;10.178;2023-06-22T06:55:51;100184.84;;;33.70;37.91
80759;BME280;70150;45.582;10.178;2023-06-22T06:58:19;100191.63;;;33.52;38.53
80759;BME280;70150;45.582;10.178;2023-06-22T07:00:45;100198.81;;;33.22;38.33
80759;BME280;70150;45.582;10.178;2023-06-22T07:03:10;100203.25;;;33.40;39.00
80759;BME280;70150;45.582;10.178;2023-06-22T07:05:36;100202.78;;;33.58;37.16
80759;BME280;70150;45.582;10.178;2023-06-22T07:08:04;100200.81;;;33.16;38.22
80759;BME280;70150;45.582;10.178;2023-06-22T07:10:30;100206.03;;;32.97;38.82
80759;BME280;70150;45.582;10.178;2023-06-22T07:12:55;100206.53;;;33.44;39.37
80759;BME280;70150;45.582;10.178;2023-06-22T07:15:23;100199.09;;;33.19;39.84
80759;BME280;70150;45.582;10.178;2023-06-22T07:17:49;100199.81;;;33.19;38.93
80759;BME280;70150;45.582;10.178;2023-06-22T07:20:14;100195.75;;;33.15;39.16
80759;BME280;70150;45.582;10.178;2023-06-22T07:22:43;100210.00;;;33.28;39.34
80759;BME280;70150;45.582;10.178;2023-06-22T07:25:09;100210.03;;;33.39;38.85
80759;BME280;70150;45.582;10.178;2023-06-22T07:27:42;100209.00;;;33.36;39.06
80759;BME280;70150;45.582;10.178;2023-06-22T07:30:09;100208.44;;;33.16;39.02
80759;BME280;70150;45.582;10.178;2023-06-22T07:32:35;100214.59;;;33.42;38.37
80759;BME280;70150;45.582;10.178;2023-06-22T07:35:01;100208.53;;;33.38;39.24
80759;BME280;70150;45.582;10.178;2023-06-22T07:37:27;100206.81;;;33.57;37.23
80759;BME280;70150;45.582;10.178;2023-06-22T07:39:53;100205.53;;;33.47;38.24
80759;BME280;70150;45.582;10.178;2023-06-22T07:42:24;100207.13;;;33.70;37.28
80759;BME280;70150;45.582;10.178;2023-06-22T07:44:50;100206.06;;;33.62;38.36
80759;BME280;70150;45.582;10.178;2023-06-22T07:47:16;100208.53;;;33.38;39.38
80759;BME280;70150;45.582;10.178;2023-06-22T07:49:45;100211.50;;;33.29;39.84
80759;BME280;70150;45.582;10.178;2023-06-22T07:52:10;100217.16;;;33.51;38.60
80759;BME280;70150;45.582;10.178;2023-06-22T07:54:36;100203.03;;;33.60;39.39
80759;BME280;70150;45.582;10.178;2023-06-22T07:57:02;100203.97;;;33.40;39.29
80759;BME280;70150;45.582;10.178;2023-06-22T07:59:28;100215.19;;;33.03;40.02
80759;BME280;70150;45.582;10.178;2023-06-22T08:01:54;100210.13;;;32.65;40.28
80759;BME280;70150;45.582;10.178;2023-06-22T08:04:20;100190.50;;;32.12;40.48
80759;BME280;70150;45.582;10.178;2023-06-22T08:06:46;100180.94;;;31.88;41.48
80759;BME280;70150;45.582;10.178;2023-06-22T08:09:12;100180.78;;;32.02;42.57
80759;BME280;70150;45.582;10.178;2023-06-22T08:11:37;100175.34;;;32.13;41.65
80759;BME280;70150;45.582;10.178;2023-06-22T08:14:03;100173.44;;;32.61;40.08
80759;BME280;70150;45.582;10.178;2023-06-22T08:16:28;100176.13;;;33.35;39.92
80759;BME280;70150;45.582;10.178;2023-06-22T08:18:54;100169.34;;;33.52;37.40
80759;BME280;70150;45.582;10.178;2023-06-22T08:21:20;100157.78;;;33.81;36.86
80759;BME280;70150;45.582;10.178;2023-06-22T08:23:46;100156.03;;;33.95;36.35
80759;BME280;70150;45.582;10.178;2023-06-22T08:26:11;100153.53;;;33.97;35.68
80759;BME280;70150;45.582;10.178;2023-06-22T08:28:37;100145.66;;;34.17;35.64
80759;BME280;70150;45.582;10.178;2023-06-22T08:31:03;100152.25;;;34.25;34.61
80759;BME280;70150;45.582;10.178;2023-06-22T08:33:29;100143.16;;;33.97;36.24
80759;BME280;70150;45.582;10.178;2023-06-22T08:35:56;100141.09;;;33.98;37.21
80759;BME280;70150;45.582;10.178;2023-06-22T08:38:21;100139.84;;;34.10;37.55
80759;BME280;70150;45.582;10.178;2023-06-22T08:40:47;100140.84;;;34.18;37.28
80759;BME280;70150;45.582;10.178;2023-06-22T08:43:13;100140.06;;;34.28;38.29
80759;BME280;70150;45.582;10.178;2023-06-22T08:45:39;100142.13;;;34.39;38.87
80759;BME280;70150;45.582;10.178;2023-06-22T08:48:05;100135.78;;;34.16;36.56
80759;BME280;70150;45.582;10.178;2023-06-22T08:50:30;100129.69;;;33.79;36.81
80759;BME280;70150;45.582;10.178;2023-06-22T08:52:56;100124.88;;;33.85;37.39
80759;BME280;70150;45.582;10.178;2023-06-22T08:55:21;100120.06;;;33.64;37.30
80759;BME280;70150;45.582;10.178;2023-06-22T08:57:47;100114.03;;;33.93;37.08
80759;BME280;70150;45.582;10.178;2023-06-22T09:00:13;100106.41;;;34.10;37.27
80759;BME280;70150;45.582;10.178;2023-06-22T09:02:42;100097.00;;;34.46;35.96
80759;BME280;70150;45.582;10.178;2023-06-22T09:05:08;100095.41;;;34.72;36.63
80759;BME280;70150;45.582;10.178;2023-06-22T09:07:34;100100.22;;;34.72;37.29
80759;BME280;70150;45.582;10.178;2023-06-22T09:10:00;100086.13;;;34.37;34.49
80759;BME280;70150;45.582;10.178;2023-06-22T09:12:26;100068.63;;;34.31;35.49
80759;BME280;70150;45.582;10.178;2023-06-22T09:14:56;100063.84;;;34.37;36.64
80759;BME280;70150;45.582;10.178;2023-06-22T09:17:24;100061.09;;;34.09;36.62
80759;BME280;70150;45.582;10.178;2023-06-22T09:19:50;100064.66;;;33.82;37.70
80759;BME280;70150;45.582;10.178;2023-06-22T09:22:15;100088.19;;;33.76;37.12
80759;BME280;70150;45.582;10.178;2023-06-22T09:24:41;100109.16;;;33.60;37.54
80759;BME280;70150;45.582;10.178;2023-06-22T09:27:06;100096.53;;;34.14;37.23
80759;BME280;70150;45.582;10.178;2023-06-22T09:29:32;100087.66;;;33.50;35.67
80759;BME280;70150;45.582;10.178;2023-06-22T09:31:59;100091.16;;;33.45;36.59
80759;BME280;70150;45.582;10.178;2023-06-22T09:34:25;100098.78;;;33.50;36.65
80759;BME280;70150;45.582;10.178;2023-06-22T09:36:50;100103.09;;;33.73;39.81
80759;BME280;70150;45.582;10.178;2023-06-22T09:39:18;100090.97;;;33.76;38.63
80759;BME280;70150;45.582;10.178;2023-06-22T09:41:43;100088.69;;;33.80;38.18
80759;BME280;70150;45.582;10.178;2023-06-22T09:44:09;100083.13;;;34.07;38.88
80759;BME280;70150;45.582;10.178;2023-06-22T09:46:37;100080.09;;;34.05;36.00
80759;BME280;70150;45.582;10.178;2023-06-22T09:49:02;100084.88;;;34.27;37.48
80759;BME280;70150;45.582;10.178;2023-06-22T09:51:28;100081.03;;;34.57;37.63
80759;BME280;70150;45.582;10.178;2023-06-22T09:53:54;100082.00;;;34.60;36.68
80759;BME280;70150;45.582;10.178;2023-06-22T09:56:22;100086.78;;;34.70;35.21
80759;BME280;70150;45.582;10.178;2023-06-22T09:58:48;100091.31;;;34.85;36.25
80759;BME280;70150;45.582;10.178;2023-06-22T10:01:15;100088.03;;;34.75;34.83
80759;BME280;70150;45.582;10.178;2023-06-22T10:03:43;100090.16;;;34.58;35.36
80759;BME280;70150;45.582;10.178;2023-06-22T10:06:09;100084.84;;;34.54;35.32
80759;BME280;70150;45.582;10.178;2023-06-22T10:08:35;100086.09;;;34.59;34.94
80759;BME280;70150;45.582;10.178;2023-06-22T10:11:01;100086.06;;;34.70;35.50
80759;BME280;70150;45.582;10.178;2023-06-22T10:13:27;100084.03;;;34.65;35.13
80759;BME280;70150;45.582;10.178;2023-06-22T10:15:55;100095.00;;;34.41;35.91
80759;BME280;70150;45.582;10.178;2023-06-22T10:18:21;100078.53;;;34.32;35.01
80759;BME280;70150;45.582;10.178;2023-06-22T10:20:48;100085.84;;;34.46;36.57
80759;BME280;70150;45.582;10.178;2023-06-22T10:23:16;100080.06;;;34.44;36.17
80759;BME280;70150;45.582;10.178;2023-06-22T10:25:42;100079.03;;;34.25;34.99
80759;BME280;70150;45.582;10.178;2023-06-22T10:28:07;100086.41;;;33.95;35.55
80759;BME280;70150;45.582;10.178;2023-06-22T10:30:33;100065.91;;;33.98;35.75
80759;BME280;70150;45.582;10.178;2023-06-22T10:32:59;100064.88;;;34.12;37.80
80759;BME280;70150;45.582;10.178;2023-06-22T10:35:26;100056.72;;;34.36;36.98
80759;BME280;70150;45.582;10.178;2023-06-22T10:37:52;100056.72;;;34.47;37.95
80759;BME280;70150;45.582;10.178;2023-06-22T10:40:18;100066.34;;;34.29;37.58
80759;BME280;70150;45.582;10.178;2023-06-22T10:42:44;100068.41;;;34.18;36.79
80759;BME280;70150;45.582;10.178;2023-06-22T10:45:10;100059.09;;;33.93;35.98
80759;BME280;70150;45.582;10.178;2023-06-22T10:47:36;100061.34;;;34.17;35.72
80759;BME280;70150;45.582;10.178;2023-06-22T10:50:02;100052.75;;;34.09;36.13
80759;BME280;70150;45.582;10.178;2023-06-22T10:52:28;100053.00;;;33.73;37.47
80759;BME280;70150;45.582;10.178;2023-06-22T10:54:54;100050.22;;;33.95;36.07
80759;BME280;70150;45.582;10.178;2023-06-22T10:57:19;100050.19;;;34.17;37.18
80759;BME280;70150;45.582;10.178;2023-06-22T10:59:45;100037.00;;;34.23;37.10
80759;BME280;70150;45.582;10.178;2023-06-22T11:02:10;100025.34;;;34.30;36.27
80759;BME280;70150;45.582;10.178;2023-06-22T11:04:36;100025.63;;;34.10;36.90
80759;BME280;70150;45.582;10.178;2023-06-22T11:07:02;100029.63;;;34.31;36.12
80759;BME280;70150;45.582;10.178;2023-06-22T11:09:27;100029.16;;;34.21;36.05
80759;BME280;70150;45.582;10.178;2023-06-22T11:11:53;100018.75;;;34.44;36.68
80759;BME280;70150;45.582;10.178;2023-06-22T11:14:19;100010.06;;;34.58;35.91
80759;BME280;70150;45.582;10.178;2023-06-22T11:16:45;100000.25;;;34.30;35.50
80759;BME280;70150;45.582;10.178;2023-06-22T11:19:11;100000.44;;;34.54;36.80
80759;BME280;70150;45.582;10.178;2023-06-22T11:21:37;99993.75;;;34.73;36.24
80759;BME280;70150;45.582;10.178;2023-06-22T11:24:03;99987.03;;;34.52;36.21
80759;BME280;70150;45.582;10.178;2023-06-22T11:26:29;99988.34;;;34.35;35.97
80759;BME280;70150;45.582;10.178;2023-06-22T11:28:55;99985.25;;;34.55;35.48
80759;BME280;70150;45.582;10.178;2023-06-22T11:31:21;99984.28;;;34.36;35.35
80759;BME280;70150;45.582;10.178;2023-06-22T11:33:49;99974.41;;;34.40;35.67
80759;BME280;70150;45.582;10.178;2023-06-22T11:36:15;99964.94;;;34.60;36.61
80759;BME280;70150;45.582;10.178;2023-06-22T11:38:41;99962.78;;;34.83;35.76
80759;BME280;70150;45.582;10.178;2023-06-22T11:41:08;99962.81;;;34.77;34.28
80759;BME280;70150;45.582;10.178;2023-06-22T11:43:34;99961.94;;;34.58;35.92
80759;BME280;70150;45.582;10.178;2023-06-22T11:46:02;99956.66;;;34.49;36.59
80759;BME280;70150;45.582;10.178;2023-06-22T11:48:28;99940.97;;;34.29;35.46
80759;BME280;70150;45.582;10.178;2023-06-22T11:50:54;99942.03;;;34.21;35.21
80759;BME280;70150;45.582;10.178;2023-06-22T11:53:21;99936.63;;;34.45;35.66
80759;BME280;70150;45.582;10.178;2023-06-22T11:55:47;99934.97;;;34.72;35.50
80759;BME280;70150;45.582;10.178;2023-06-22T11:58:13;99942.38;;;35.04;35.44
80759;BME280;70150;45.582;10.178;2023-06-22T12:00:38;99934.06;;;34.99;34.71
80759;BME280;70150;45.582;10.178;2023-06-22T12:03:04;99938.59;;;35.02;35.29
80759;BME280;70150;45.582;10.178;2023-06-22T12:05:30;99938.81;;;35.04;35.26
80759;BME280;70150;45.582;10.178;2023-06-22T12:07:55;99929.03;;;34.92;34.30
80759;BME280;70150;45.582;10.178;2023-06-22T12:10:22;99936.69;;;34.80;35.84
80759;BME280;70150;45.582;10.178;2023-06-22T12:12:48;99920.47;;;34.79;35.10
80759;BME280;70150;45.582;10.178;2023-06-22T12:15:13;99918.47;;;34.79;35.50
80759;BME280;70150;45.582;10.178;2023-06-22T12:17:40;99918.84;;;34.59;35.04
80759;BME280;70150;45.582;10.178;2023-06-22T12:20:06;99909.69;;;34.64;35.34
80759;BME280;70150;45.582;10.178;2023-06-22T12:22:33;99908.66;;;34.67;34.31
80759;BME280;70150;45.582;10.178;2023-06-22T12:24:59;99911.19;;;34.65;36.70
80759;BME280;70150;45.582;10.178;2023-06-22T12:27:25;99905.22;;;34.91;35.69
80759;BME280;70150;45.582;10.178;2023-06-22T12:29:51;99899.16;;;35.16;34.04
80759;BME280;70150;45.582;10.178;2023-06-22T12:32:16;99903.16;;;35.26;34.27
80759;BME280;70150;45.582;10.178;2023-06-22T12:34:42;99896.75;;;35.31;35.52
80759;BME280;70150;45.582;10.178;2023-06-22T12:37:08;99905.66;;;35.00;34.49
80759;BME280;70150;45.582;10.178;2023-06-22T12:39:34;99902.47;;;35.15;33.93
80759;BME280;70150;45.582;10.178;2023-06-22T12:41:59;99906.13;;;35.04;34.76
80759;BME280;70150;45.582;10.178;2023-06-22T12:44:25;99915.81;;;35.27;35.98
80759;BME280;70150;45.582;10.178;2023-06-22T12:46:50;99917.19;;;35.15;34.60